createdAt,value
2019-04-04T00:00:31.958Z,16.27
2019-04-04T00:02:59.164Z,16.23
2019-04-04T00:05:26.395Z,16.62
2019-04-04T00:07:55.423Z,17.00
2019-04-04T00:10:22.618Z,17.43
2019-04-04T00:12:49.811Z,18.48
2019-04-04T00:15:17.046Z,17.02
2019-04-04T00:17:44.289Z,17.87
2019-04-04T00:20:11.489Z,19.35
2019-04-04T00:22:38.705Z,17.25
2019-04-04T00:25:06.014Z,16.40
2019-04-04T00:27:34.805Z,17.23
2019-04-04T00:30:02.135Z,19.57
2019-04-04T00:32:29.507Z,17.73
2019-04-04T00:34:57.882Z,17.73
2019-04-04T00:37:26.134Z,17.48
2019-04-04T00:39:53.510Z,17.93
2019-04-04T00:42:20.864Z,17.95
2019-04-04T00:44:48.071Z,16.75
2019-04-04T00:47:15.436Z,17.00
2019-04-04T00:49:42.704Z,18.42
2019-04-04T00:52:10.848Z,18.60
2019-04-04T00:54:38.189Z,17.60
2019-04-04T00:57:05.401Z,17.30
2019-04-04T00:59:32.590Z,18.83
2019-04-04T01:01:59.838Z,18.57
2019-04-04T01:04:27.302Z,18.82
2019-04-04T01:06:54.501Z,18.27
2019-04-04T01:09:21.761Z,18.02
2019-04-04T01:11:50.982Z,18.30
2019-04-04T01:14:17.842Z,19.67
2019-04-04T01:16:45.100Z,17.92
2019-04-04T01:19:12.291Z,19.55
2019-04-04T01:21:39.508Z,19.47
2019-04-04T01:24:09.920Z,20.08
2019-04-04T01:26:37.408Z,19.73
2019-04-04T01:29:05.924Z,19.67
2019-04-04T01:31:33.311Z,19.62
2019-04-04T01:34:02.142Z,20.45
2019-04-04T01:36:29.405Z,21.15
2019-04-04T01:38:58.105Z,20.83
2019-04-04T01:41:25.706Z,24.13
2019-04-04T01:44:04.578Z,25.27
2019-04-04T01:46:21.898Z,21.97
2019-04-04T01:48:50.035Z,22.22
2019-04-04T01:51:18.012Z,21.67
2019-04-04T01:53:45.278Z,23.10
2019-04-04T01:56:12.495Z,22.55
2019-04-04T01:58:41.747Z,23.12
2019-04-04T02:01:08.875Z,22.13
2019-04-04T02:03:36.077Z,22.85
2019-04-04T02:06:03.487Z,24.82
2019-04-04T02:08:31.630Z,22.95
2019-04-04T02:10:59.434Z,23.60
2019-04-04T02:13:26.715Z,22.40
2019-04-04T02:15:54.071Z,23.15
2019-04-04T02:18:23.612Z,25.37
2019-04-04T02:20:51.927Z,25.68
2019-04-04T02:23:19.114Z,25.90
2019-04-04T02:25:46.327Z,24.52
2019-04-04T02:28:13.624Z,23.00
2019-04-04T02:30:40.828Z,24.47
2019-04-04T02:33:08.105Z,25.08
2019-04-04T02:35:35.366Z,24.35
2019-04-04T02:38:04.192Z,24.82
2019-04-04T02:40:31.390Z,24.75
2019-04-04T02:42:58.704Z,24.95
2019-04-04T02:45:25.905Z,25.35
2019-04-04T02:47:53.168Z,25.30
2019-04-04T02:50:20.404Z,24.00
2019-04-04T02:52:47.594Z,24.05
2019-04-04T02:55:14.875Z,25.40
2019-04-04T02:57:43.771Z,24.80
2019-04-04T03:00:11.156Z,23.83
2019-04-04T03:02:38.429Z,23.90
2019-04-04T03:05:05.675Z,23.90
2019-04-04T03:07:32.948Z,23.27
2019-04-04T03:10:00.153Z,24.50
2019-04-04T03:12:27.447Z,23.85
2019-04-04T03:14:54.746Z,26.57
2019-04-04T03:17:22.112Z,24.67
2019-04-04T03:19:49.399Z,25.55
2019-04-04T03:22:16.601Z,24.30
2019-04-04T03:24:45.148Z,25.57
2019-04-04T03:27:12.712Z,24.98
2019-04-04T03:29:39.935Z,24.98
2019-04-04T03:32:13.259Z,24.87
2019-04-04T03:34:36.371Z,24.07
2019-04-04T03:37:06.685Z,22.67
2019-04-04T03:39:32.833Z,22.25
2019-04-04T03:42:00.067Z,22.17
2019-04-04T03:44:27.250Z,25.25
2019-04-04T03:46:54.433Z,23.67
2019-04-04T03:49:24.406Z,24.23
2019-04-04T03:51:50.743Z,24.00
2019-04-04T03:54:22.206Z,24.70
2019-04-04T03:56:48.550Z,23.47
2019-04-04T03:59:15.757Z,23.77
2019-04-04T04:01:46.599Z,22.52
2019-04-04T04:04:11.983Z,23.77
2019-04-04T04:06:42.071Z,23.90
2019-04-04T04:09:08.150Z,24.37
2019-04-04T04:11:37.423Z,23.98
2019-04-04T04:14:04.504Z,23.05
2019-04-04T04:16:34.908Z,23.18
2019-04-04T04:19:00.649Z,23.40
2019-04-04T04:21:27.883Z,23.10
2019-04-04T04:23:56.977Z,21.50
2019-04-04T04:26:24.101Z,22.95
2019-04-04T04:28:53.158Z,20.05
2019-04-04T04:31:20.228Z,22.98
2019-04-04T04:33:47.460Z,22.80
2019-04-04T04:36:16.555Z,24.80
2019-04-04T04:38:43.975Z,22.77
2019-04-04T04:41:11.298Z,25.55
2019-04-04T04:43:38.498Z,16.90
2019-04-04T04:46:05.817Z,25.20
2019-04-04T04:48:33.104Z,18.82
2019-04-04T04:51:00.308Z,19.85
2019-04-04T04:53:27.539Z,20.20
2019-04-04T04:55:54.796Z,19.73
2019-04-04T04:58:22.013Z,20.60
2019-04-04T05:00:49.236Z,19.15
2019-04-04T05:03:16.533Z,19.80
2019-04-04T05:05:43.830Z,23.73
2019-04-04T05:08:11.063Z,17.98
2019-04-04T05:10:38.401Z,19.52
2019-04-04T05:13:05.605Z,25.25
2019-04-04T05:15:33.232Z,27.77
2019-04-04T05:18:00.589Z,25.85
2019-04-04T05:20:29.825Z,19.98
2019-04-04T05:22:58.340Z,28.50
2019-04-04T05:25:25.606Z,25.12
2019-04-04T05:27:52.802Z,23.38
2019-04-04T05:30:20.418Z,25.08
2019-04-04T05:32:51.766Z,25.37
2019-04-04T05:35:17.490Z,24.15
2019-04-04T05:37:44.690Z,24.10
2019-04-04T05:40:12.179Z,24.65
2019-04-04T05:42:39.451Z,22.45
2019-04-04T05:45:06.865Z,29.92
2019-04-04T05:47:34.146Z,29.35
2019-04-04T05:50:01.550Z,25.45
2019-04-04T05:52:32.268Z,27.23
2019-04-04T05:54:57.842Z,30.10
2019-04-04T05:57:25.136Z,25.48
2019-04-04T05:59:55.006Z,31.50
2019-04-04T06:02:21.496Z,31.37
2019-04-04T06:04:48.872Z,28.57
2019-04-04T06:07:17.759Z,24.87
2019-04-04T06:09:46.940Z,25.68
2019-04-04T06:12:13.959Z,32.83
2019-04-04T06:14:41.211Z,32.23
2019-04-04T06:17:08.488Z,24.80
2019-04-04T06:19:35.749Z,24.77
2019-04-04T06:22:03.089Z,31.12
2019-04-04T06:24:30.775Z,33.20
2019-04-04T06:26:58.062Z,32.47
2019-04-04T06:29:26.983Z,29.07
2019-04-04T06:31:54.179Z,28.85
2019-04-04T06:34:23.962Z,34.10
2019-04-04T06:36:50.453Z,28.23
2019-04-04T06:39:17.670Z,29.05
2019-04-04T06:41:44.945Z,27.73
2019-04-04T06:44:13.120Z,29.40
2019-04-04T06:46:41.186Z,24.80
2019-04-04T06:49:10.058Z,28.02
2019-04-04T06:51:37.294Z,27.25
2019-04-04T06:54:04.499Z,24.85
2019-04-04T06:56:32.014Z,25.20
2019-04-04T06:59:00.136Z,26.07
2019-04-04T07:01:29.203Z,22.47
2019-04-04T07:03:59.535Z,22.98
2019-04-04T07:06:27.180Z,23.53
2019-04-04T07:08:54.527Z,23.30
2019-04-04T07:11:21.873Z,23.35
2019-04-04T07:13:49.234Z,21.75
2019-04-04T07:16:16.537Z,19.02
2019-04-04T07:18:43.841Z,25.08
2019-04-04T07:21:11.350Z,24.98
2019-04-04T07:23:41.628Z,22.60
2019-04-04T07:26:10.965Z,22.30
2019-04-04T07:28:36.990Z,21.17
2019-04-04T07:31:04.257Z,22.17
2019-04-04T07:33:31.543Z,22.15
2019-04-04T07:35:58.798Z,19.37
2019-04-04T07:38:26.626Z,19.07
2019-04-04T07:40:55.042Z,21.62
2019-04-04T07:43:23.894Z,19.40
2019-04-04T07:45:51.143Z,20.15
2019-04-04T07:48:18.679Z,21.07
2019-04-04T07:50:46.052Z,17.92
2019-04-04T07:53:14.957Z,15.90
2019-04-04T07:55:42.918Z,21.87
2019-04-04T07:58:10.342Z,18.80
2019-04-04T08:00:39.809Z,17.48
2019-04-04T08:03:13.834Z,18.82
2019-04-04T08:05:41.223Z,20.48
2019-04-04T08:08:08.545Z,20.52
2019-04-04T08:10:35.995Z,20.10
2019-04-04T08:13:03.265Z,17.73
2019-04-04T08:15:30.570Z,19.00
2019-04-04T08:17:57.933Z,16.52
2019-04-04T08:20:25.574Z,16.60
2019-04-04T08:22:52.822Z,17.50
2019-04-04T08:25:20.052Z,16.25
2019-04-04T08:27:47.566Z,15.20
2019-04-04T08:30:14.919Z,16.42
2019-04-04T08:32:42.233Z,18.77
2019-04-04T08:35:11.182Z,18.55
2019-04-04T08:37:38.519Z,19.15
2019-04-04T08:40:06.179Z,17.70
2019-04-04T08:42:33.495Z,17.32
2019-04-04T08:45:02.491Z,17.52
2019-04-04T08:47:30.300Z,15.93
2019-04-04T08:49:57.572Z,16.57
2019-04-04T08:52:25.397Z,16.70
2019-04-04T08:54:55.688Z,17.23
2019-04-04T08:57:23.039Z,17.85
2019-04-04T08:59:50.368Z,18.90
2019-04-04T09:02:17.551Z,19.20
2019-04-04T09:04:44.792Z,18.40
2019-04-04T09:07:12.059Z,17.42
2019-04-04T09:09:39.384Z,17.23
2019-04-04T09:12:06.743Z,18.40
2019-04-04T09:14:35.634Z,19.52
2019-04-04T09:17:03.083Z,17.92
2019-04-04T09:19:30.361Z,16.30
2019-04-04T09:21:57.577Z,16.70
2019-04-04T09:24:24.794Z,16.27
2019-04-04T09:26:52.016Z,16.35
2019-04-04T09:29:19.231Z,17.80
2019-04-04T09:31:46.603Z,16.65
2019-04-04T09:34:13.872Z,15.20
2019-04-04T09:36:42.369Z,17.10
2019-04-04T09:39:10.238Z,15.38
2019-04-04T09:41:37.458Z,16.60
2019-04-04T09:44:06.129Z,15.60
2019-04-04T09:46:34.297Z,15.18
2019-04-04T09:49:01.605Z,14.95
2019-04-04T09:51:29.652Z,15.23
2019-04-04T09:53:56.906Z,13.60
2019-04-04T09:56:24.236Z,15.25
2019-04-04T09:58:54.694Z,14.30
2019-04-04T10:01:20.697Z,15.03
2019-04-04T10:03:47.912Z,12.95
2019-04-04T10:06:15.354Z,13.60
2019-04-04T10:08:44.604Z,13.08
2019-04-04T10:11:11.737Z,13.78
2019-04-04T10:13:39.003Z,14.07
2019-04-04T10:16:06.276Z,11.93
2019-04-04T10:18:35.328Z,13.20
2019-04-04T10:21:11.924Z,12.68
2019-04-04T10:23:31.678Z,13.15
2019-04-04T10:25:59.065Z,13.62
2019-04-04T10:28:30.920Z,11.40
2019-04-04T10:30:58.226Z,12.85
2019-04-04T10:33:25.819Z,12.10
2019-04-04T10:35:53.096Z,12.60
2019-04-04T10:38:20.321Z,12.05
2019-04-04T10:40:47.601Z,11.22
2019-04-04T10:43:14.907Z,13.00
2019-04-04T10:45:43.406Z,11.83
2019-04-04T10:48:10.726Z,11.60
2019-04-04T10:50:38.037Z,11.60
2019-04-04T10:53:05.364Z,12.85
2019-04-04T10:55:33.302Z,11.95
2019-04-04T10:58:00.676Z,12.63
2019-04-04T11:00:27.909Z,11.43
2019-04-04T11:02:55.263Z,11.10
2019-04-04T11:05:24.251Z,12.43
2019-04-04T11:07:56.523Z,11.55
2019-04-04T11:10:23.079Z,11.88
2019-04-04T11:12:51.548Z,12.03
2019-04-04T11:15:18.842Z,9.80
2019-04-04T11:17:46.108Z,11.22
2019-04-04T11:20:13.442Z,11.60
2019-04-04T11:22:40.717Z,11.77
2019-04-04T11:25:08.054Z,11.43
2019-04-04T11:27:36.359Z,11.18
2019-04-04T11:30:05.474Z,10.90
2019-04-04T11:32:32.728Z,11.30
2019-04-04T11:34:59.963Z,11.95
2019-04-04T11:37:27.639Z,10.85
2019-04-04T11:39:55.337Z,11.05
2019-04-04T11:42:24.308Z,10.77
2019-04-04T11:44:52.194Z,11.08
2019-04-04T11:47:20.476Z,10.85
2019-04-04T11:49:47.760Z,11.20
2019-04-04T11:52:14.953Z,11.28
2019-04-04T11:54:59.593Z,11.83
2019-04-04T11:57:26.927Z,11.33
2019-04-04T11:59:54.860Z,11.95
2019-04-04T12:02:22.220Z,11.50
2019-04-04T12:04:49.542Z,11.22
2019-04-04T12:07:16.845Z,11.50
2019-04-04T12:09:44.138Z,11.05
2019-04-04T12:12:11.482Z,11.25
2019-04-04T12:14:38.799Z,11.05
2019-04-04T12:17:06.264Z,11.28
2019-04-04T12:19:33.626Z,11.05
2019-04-04T12:22:01.121Z,11.50
2019-04-04T12:24:31.550Z,11.68
2019-04-04T12:26:58.757Z,10.68
2019-04-04T12:29:26.002Z,11.53
2019-04-04T12:31:53.327Z,11.60
2019-04-04T12:34:20.681Z,11.53
2019-04-04T12:36:47.916Z,11.43
2019-04-04T12:39:15.286Z,12.15
2019-04-04T12:41:42.746Z,12.80
2019-04-04T12:44:15.282Z,12.47
2019-04-04T12:46:43.735Z,11.97
2019-04-04T12:49:11.672Z,12.60
2019-04-04T12:51:39.093Z,11.95
2019-04-04T12:54:06.355Z,12.55
2019-04-04T12:56:33.724Z,12.47
2019-04-04T12:59:01.097Z,12.50
2019-04-04T13:01:28.455Z,12.13
2019-04-04T13:03:57.029Z,11.48
2019-04-04T13:06:24.592Z,11.18
2019-04-04T13:08:51.890Z,10.63
2019-04-04T13:11:19.201Z,10.73
2019-04-04T13:13:46.520Z,11.50
2019-04-04T13:16:13.785Z,10.55
2019-04-04T13:18:42.122Z,10.55
2019-04-04T13:21:12.367Z,10.65
2019-04-04T13:23:39.810Z,10.82
2019-04-04T13:26:07.030Z,11.18
2019-04-04T13:28:34.371Z,11.47
2019-04-04T13:31:01.643Z,11.15
2019-04-04T13:33:28.961Z,11.12
2019-04-04T13:35:56.180Z,10.45
2019-04-04T13:38:23.395Z,9.37
2019-04-04T13:40:50.801Z,10.53
2019-04-04T13:43:18.076Z,10.20
2019-04-04T13:45:45.482Z,10.77
2019-04-04T13:48:13.337Z,10.60
2019-04-04T13:50:40.836Z,10.35
2019-04-04T13:53:09.682Z,10.72
2019-04-04T13:55:39.183Z,9.88
2019-04-04T13:58:06.332Z,10.53
2019-04-04T14:00:33.548Z,10.03
2019-04-04T14:03:00.967Z,11.03
2019-04-04T14:05:28.453Z,10.85
2019-04-04T14:08:00.308Z,10.98
2019-04-04T14:10:24.907Z,10.50
2019-04-04T14:12:52.372Z,10.45
2019-04-04T14:15:19.940Z,10.78
2019-04-04T14:17:47.426Z,11.70
2019-04-04T14:20:15.811Z,11.25
2019-04-04T14:22:43.274Z,11.20
2019-04-04T14:25:10.583Z,11.22
2019-04-04T14:27:37.918Z,12.07
2019-04-04T14:30:08.548Z,12.30
2019-04-04T14:32:35.828Z,11.88
2019-04-04T14:35:03.362Z,12.80
2019-04-04T14:37:30.780Z,12.90
2019-04-04T14:39:57.972Z,12.10
2019-04-04T14:42:25.231Z,12.05
2019-04-04T14:44:52.443Z,11.83
2019-04-04T14:47:21.306Z,11.85
2019-04-04T14:49:49.785Z,11.03
2019-04-04T14:52:19.685Z,11.03
2019-04-04T14:54:48.677Z,11.10
2019-04-04T14:57:15.945Z,11.40
2019-04-04T14:59:43.219Z,10.23
2019-04-04T15:02:10.485Z,11.18
2019-04-04T15:04:39.984Z,10.70
2019-04-04T15:07:07.367Z,11.40
2019-04-04T15:09:40.609Z,11.15
2019-04-04T15:12:09.613Z,11.55
2019-04-04T15:14:37.009Z,10.68
2019-04-04T15:17:04.917Z,11.28
2019-04-04T15:19:34.738Z,11.00
2019-04-04T15:22:01.964Z,10.38
2019-04-04T15:24:29.290Z,10.40
2019-04-04T15:26:57.197Z,10.53
2019-04-04T15:29:24.720Z,10.95
2019-04-04T15:31:57.682Z,10.20
2019-04-04T15:34:25.972Z,10.05
2019-04-04T15:36:55.030Z,10.95
2019-04-04T15:39:22.384Z,10.30
2019-04-04T15:41:53.124Z,9.70
2019-04-04T15:44:25.992Z,10.67
2019-04-04T15:46:59.508Z,8.97
2019-04-04T15:49:28.466Z,9.60
2019-04-04T15:51:55.692Z,8.53
2019-04-04T15:54:22.963Z,8.10
2019-04-04T15:56:50.369Z,7.67
2019-04-04T15:59:17.627Z,7.30
2019-04-04T16:01:44.958Z,8.20
2019-04-04T16:04:12.276Z,8.40
2019-04-04T16:06:39.640Z,9.20
2019-04-04T16:09:07.026Z,8.90
2019-04-04T16:11:34.408Z,8.88
2019-04-04T16:14:01.626Z,9.55
2019-04-04T16:16:28.985Z,9.18
2019-04-04T16:18:56.322Z,8.60
2019-04-04T16:21:23.546Z,10.18
2019-04-04T16:23:50.748Z,9.20
2019-04-04T16:26:18.185Z,9.60
2019-04-04T16:28:45.545Z,9.18
2019-04-04T16:31:13.512Z,9.95
2019-04-04T16:33:40.834Z,9.70
2019-04-04T16:36:08.118Z,19.65
2019-04-04T16:38:35.563Z,10.08
2019-04-04T16:41:02.871Z,10.00
2019-04-04T16:43:30.222Z,10.30
2019-04-04T16:45:57.549Z,10.10
2019-04-04T16:48:24.753Z,11.03
2019-04-04T16:50:52.133Z,10.45
2019-04-04T16:53:19.425Z,10.27
2019-04-04T16:55:46.626Z,10.58
2019-04-04T16:58:13.896Z,9.90
2019-04-04T17:00:41.083Z,10.43
2019-04-04T17:03:08.333Z,10.03
2019-04-04T17:05:36.561Z,9.83
2019-04-04T17:08:03.840Z,9.38
2019-04-04T17:10:31.104Z,9.60
2019-04-04T17:12:58.425Z,10.35
2019-04-04T17:15:25.773Z,9.70
2019-04-04T17:17:52.989Z,10.13
2019-04-04T17:20:20.892Z,10.05
2019-04-04T17:22:49.060Z,9.95
2019-04-04T17:25:16.269Z,9.93
2019-04-04T17:27:43.582Z,10.28
2019-04-04T17:30:10.771Z,10.00
2019-04-04T17:32:41.105Z,9.55
2019-04-04T17:35:08.665Z,9.55
2019-04-04T17:37:36.119Z,9.53
2019-04-04T17:40:04.093Z,9.90
2019-04-04T17:42:33.488Z,10.00
2019-04-04T17:45:02.102Z,9.53
2019-04-04T17:47:29.614Z,9.20
2019-04-04T17:49:57.236Z,9.85
2019-04-04T17:52:24.462Z,9.27
2019-04-04T17:54:52.141Z,8.88
2019-04-04T17:57:22.332Z,8.97
2019-04-04T17:59:50.797Z,8.80
2019-04-04T18:02:18.131Z,9.05
2019-04-04T18:04:48.657Z,8.90
2019-04-04T18:07:14.964Z,8.88
2019-04-04T18:09:42.422Z,8.38
2019-04-04T18:12:09.807Z,8.98
2019-04-04T18:14:37.125Z,8.60
2019-04-04T18:17:04.484Z,8.40
2019-04-04T18:19:31.744Z,9.23
2019-04-04T18:21:59.086Z,9.40
2019-04-04T18:24:26.481Z,7.10
2019-04-04T18:26:53.721Z,7.42
2019-04-04T18:29:20.979Z,6.33
2019-04-04T18:31:48.246Z,6.65
2019-04-04T18:34:16.841Z,6.20
2019-04-04T18:36:44.980Z,5.95
2019-04-04T18:39:12.375Z,6.08
2019-04-04T18:41:40.339Z,5.17
2019-04-04T18:44:07.623Z,4.72
2019-04-04T18:46:35.128Z,4.80
2019-04-04T18:49:02.343Z,4.57
2019-04-04T18:51:29.628Z,4.90
2019-04-04T18:53:56.964Z,4.60
2019-04-04T18:56:24.952Z,4.50
2019-04-04T18:58:52.141Z,4.60
2019-04-04T19:01:19.361Z,5.08
2019-04-04T19:03:46.696Z,4.87
2019-04-04T19:06:13.902Z,4.63
2019-04-04T19:08:41.147Z,4.80
2019-04-04T19:11:08.359Z,5.03
2019-04-04T19:13:44.220Z,3.98
2019-04-04T19:16:04.506Z,4.45
2019-04-04T19:18:31.712Z,4.55
2019-04-04T19:20:58.934Z,4.37
2019-04-04T19:23:26.207Z,4.50
2019-04-04T19:25:53.402Z,4.50
2019-04-04T19:28:20.686Z,4.12
2019-04-04T19:30:47.986Z,4.20
2019-04-04T19:33:15.461Z,4.10
2019-04-04T19:35:42.648Z,4.53
2019-04-04T19:38:09.899Z,4.70
2019-04-04T19:40:37.180Z,4.33
2019-04-04T19:43:17.040Z,4.47
2019-04-04T19:45:33.414Z,4.22
2019-04-04T19:48:00.616Z,4.20
2019-04-04T19:50:27.834Z,4.40
2019-04-04T19:52:55.133Z,4.17
2019-04-04T19:55:22.400Z,4.05
2019-04-04T19:57:49.604Z,4.20
2019-04-04T20:00:17.369Z,3.62
2019-04-04T20:02:44.585Z,4.17
2019-04-04T20:05:11.768Z,4.00
2019-04-04T20:07:39.026Z,4.40
2019-04-04T20:10:07.956Z,3.87
2019-04-04T20:12:35.233Z,3.95
2019-04-04T20:15:02.498Z,4.20
2019-04-04T20:17:29.706Z,4.10
2019-04-04T20:19:56.916Z,3.50
2019-04-04T20:22:24.164Z,3.40
2019-04-04T20:24:51.340Z,3.60
2019-04-04T20:27:18.584Z,3.80
2019-04-04T20:29:45.910Z,4.17
2019-04-04T20:32:13.166Z,3.95
2019-04-04T20:34:40.353Z,4.10
2019-04-04T20:37:07.581Z,3.90
2019-04-04T20:39:34.858Z,4.17
2019-04-04T20:42:04.146Z,4.42
2019-04-04T20:44:31.677Z,4.65
2019-04-04T20:46:58.999Z,4.58
2019-04-04T20:49:26.208Z,4.60
2019-04-04T20:51:53.398Z,4.60
2019-04-04T20:54:20.767Z,4.05
2019-04-04T20:56:48.030Z,4.78
2019-04-04T20:59:15.369Z,4.60
2019-04-04T21:01:42.648Z,4.47
2019-04-04T21:04:09.917Z,4.90
2019-04-04T21:06:37.157Z,5.00
2019-04-04T21:09:06.201Z,4.90
2019-04-04T21:11:34.123Z,5.12
2019-04-04T21:14:04.469Z,5.62
2019-04-04T21:16:31.665Z,5.15
2019-04-04T21:19:01.405Z,5.15
2019-04-04T21:21:28.960Z,4.70
2019-04-04T21:23:57.035Z,5.10
2019-04-04T21:26:26.777Z,4.83
2019-04-04T21:28:54.160Z,4.30
2019-04-04T21:31:26.473Z,3.85
2019-04-04T21:33:54.443Z,3.98
2019-04-04T21:36:23.913Z,3.70
2019-04-04T21:38:55.100Z,3.95
2019-04-04T21:41:24.900Z,3.90
2019-04-04T21:43:52.623Z,3.60
2019-04-04T21:46:19.845Z,3.70
2019-04-04T21:48:48.407Z,3.52
2019-04-04T21:51:19.169Z,3.10
2019-04-04T21:53:48.660Z,3.22
2019-04-04T21:56:17.486Z,3.90
2019-04-04T21:58:44.894Z,3.22
2019-04-04T22:01:12.410Z,3.60
2019-04-04T22:03:41.994Z,3.67
2019-04-04T22:06:10.283Z,3.62
2019-04-04T22:08:39.075Z,3.30
2019-04-04T22:11:07.442Z,3.75
2019-04-04T22:13:39.334Z,3.10
2019-04-04T22:16:08.568Z,3.90
2019-04-04T22:18:37.298Z,3.20
2019-04-04T22:21:07.522Z,3.65
2019-04-04T22:23:34.813Z,3.80
2019-04-04T22:26:02.193Z,3.50
2019-04-04T22:28:29.398Z,4.20
2019-04-04T22:30:56.630Z,4.07
2019-04-04T22:33:23.872Z,4.17
2019-04-04T22:35:51.139Z,3.08
2019-04-04T22:38:18.328Z,3.70
2019-04-04T22:40:45.612Z,4.08
2019-04-04T22:43:14.436Z,4.17
2019-04-04T22:45:41.749Z,3.70
2019-04-04T22:48:08.950Z,4.00
2019-04-04T22:50:36.144Z,4.50
2019-04-04T22:53:03.458Z,4.12
2019-04-04T22:55:30.673Z,3.70
2019-04-04T22:57:57.930Z,4.40
2019-04-04T23:00:25.181Z,4.12
2019-04-04T23:02:52.445Z,4.60
2019-04-04T23:05:19.618Z,4.22
2019-04-04T23:07:46.856Z,4.42
2019-04-04T23:10:14.143Z,4.33
2019-04-04T23:12:41.334Z,5.20
2019-04-04T23:15:08.930Z,5.08
2019-04-04T23:17:39.197Z,5.00
2019-04-04T23:20:07.827Z,5.28
2019-04-04T23:22:35.296Z,4.50
2019-04-04T23:25:02.598Z,5.22
2019-04-04T23:27:29.918Z,4.90
2019-04-04T23:29:57.207Z,6.35
2019-04-04T23:32:24.456Z,6.37
2019-04-04T23:34:51.710Z,5.17
2019-04-04T23:37:18.991Z,5.65
2019-04-04T23:39:46.190Z,5.80
2019-04-04T23:42:13.420Z,5.12
2019-04-04T23:44:40.623Z,4.87
2019-04-04T23:47:07.899Z,5.20
2019-04-04T23:49:36.801Z,4.72
2019-04-04T23:52:03.984Z,5.10
2019-04-04T23:54:31.192Z,4.70
2019-04-04T23:56:58.930Z,4.50
2019-04-04T23:59:26.517Z,4.70
